Terminal Aerodrome Forecast
Issued by NWS Sioux Falls, SD

Home | Current Version | Previous Version | Graphics & Text | Print | Product List | Glossary On
Versions: 1 2 3 4 5 6 7 8 9 10 11 12 13 14 15 16 17 18 19
000
FTUS43 KFSD 051136
TAFFSD
TAF
KFSD 051136Z 0512/0612 07006KT P6SM SCT045 BKN250
     FM051400 08010KT P6SM OVC050
     FM051600 11013G19KT P6SM OVC040
     FM051900 13013G19KT P6SM OVC040
      TEMPO 0520/0523 5SM SHRA OVC025
     FM060000 12012KT P6SM BKN040
     FM060500 13011KT 6SM BR OVC015
     FM060900 14014KT 5SM -SHRA BR OVC012=

USA.gov is the U.S. government's official web portal to all federal, state and local government web resources and services.